Ophir, Colorado
Current Conditions -  °F | °C
As of 7:15 PM on Friday 19 Dec 2014 (Local Time) from KTEX Reporting Station
Scattered Clouds Scattered Clouds  
Wind Chill: 15°   Ceiling: Unl
Heat Index: 22°   Visibility: 10mi
Dew Point: 17°   Wind: 5mph
Humidity: 82%   Direction: 220°SW
Pressure: 30.2"   Gusts: NA
Location:  37.86°N, 107.83°W
Report Text: KTEX 200215Z AUTO 22004KT 10SM SCT120 M06/M08 A3020 RMK AO2 T10581085
Loading
Personal Weather Stations






























Interactive Weather Map New forecast layout! Learn more

10-Day Weather Forecast

Advertisements
Track Severe Weather on mobile